Time;durP1;ratioP1;P1;durP2;ratioP2;P2;SDS_P1;SDS_P2;PMS_P1;PMS_P2;Temp;Humidity;BMP_temperature;BMP_pressure;BME280_temperature;BME280_humidity;BME280_pressure;Samples;Min_cycle;Max_cycle;Signal;HPM_P1;HPM_P2
2023/04/03 00:01:18;;;;;;;5.20;4.70;;;;;;;19.55;48.45;98749.77;104309;1259;61263;-65
2023/04/03 00:04:06;;;;;;;6.00;5.50;;;;;;;19.51;48.44;98746.12;104239;1260;76889;-64
2023/04/03 00:06:41;;;;;;;5.90;5.40;;;;;;;19.40;48.51;98746.84;104263;1259;70761;-65
2023/04/03 00:09:12;;;;;;;7.00;6.30;;;;;;;19.36;48.66;98748.30;104370;1259;73902;-64
2023/04/03 00:11:41;;;;;;;6.10;5.50;;;;;;;19.35;49.18;98746.68;104416;1257;62966;-64
2023/04/03 00:14:10;;;;;;;6.40;5.80;;;;;;;19.38;48.74;98744.90;104337;1275;61151;-64
2023/04/03 00:16:56;;;;;;;6.80;6.20;;;;;;;19.32;49.05;98746.98;104310;1259;73821;-64
2023/04/03 00:19:25;;;;;;;11.30;7.30;;;;;;;19.16;49.19;98744.80;104265;1259;71263;-64
2023/04/03 00:21:54;;;;;;;7.70;6.90;;;;;;;19.09;49.30;98747.48;104370;1257;74249;-64
2023/04/03 00:24:22;;;;;;;7.50;6.70;;;;;;;19.04;49.79;98748.05;104379;1259;61750;-63
2023/04/03 00:26:58;;;;;;;8.60;7.70;;;;;;;19.04;49.99;98747.17;104287;1259;61144;-64
2023/04/03 00:29:27;;;;;;;8.80;7.20;;;;;;;19.16;49.64;98749.30;104247;1261;74617;-64
2023/04/03 00:31:56;;;;;;;8.70;7.90;;;;;;;19.19;49.66;98745.42;104255;1262;71027;-64
2023/04/03 00:34:25;;;;;;;9.10;7.60;;;;;;;19.26;49.51;98749.96;104361;1259;73000;-64
2023/04/03 00:36:54;;;;;;;8.00;7.30;;;;;;;19.31;49.15;98746.50;104322;1257;62350;-64
2023/04/03 00:39:24;;;;;;;12.10;6.60;;;;;;;19.36;49.14;98748.00;104353;1255;60882;-63
2023/04/03 00:41:56;;;;;;;8.00;6.90;;;;;;;19.39;48.96;98749.67;104357;1260;73658;-64
2023/04/03 00:44:32;;;;;;;8.20;7.40;;;;;;;19.37;48.92;98740.63;104223;1259;70532;-64
2023/04/03 00:47:05;;;;;;;6.80;6.10;;;;;;;19.40;49.11;98742.46;104586;1259;73297;-64
2023/04/03 00:49:33;;;;;;;7.80;7.00;;;;;;;19.40;48.68;98739.63;104460;1258;62527;-64
2023/04/03 00:52:02;;;;;;;7.80;7.00;;;;;;;19.35;48.83;98744.29;104380;1259;61081;-64
2023/04/03 00:54:31;;;;;;;6.60;6.00;;;;;;;19.29;49.10;98739.89;104234;1256;73422;-67
2023/04/03 00:56:59;;;;;;;6.60;6.00;;;;;;;19.28;49.20;98739.79;104451;1257;69660;-68
2023/04/03 00:59:31;;;;;;;6.00;5.50;;;;;;;19.33;49.23;98739.90;104386;1256;73269;-66
2023/04/03 01:02:00;;;;;;;5.70;5.20;;;;;;;19.32;49.26;98737.52;104223;1261;62418;-68
2023/04/03 01:04:30;;;;;;;6.50;5.80;;;;;;;19.32;49.15;98738.58;104166;1278;61604;-67
2023/04/03 01:07:21;;;;;;;6.70;6.10;;;;;;;19.28;49.28;98734.27;104422;1257;74121;-68
2023/04/03 01:09:51;;;;;;;6.10;5.60;;;;;;;19.35;49.52;98734.05;104316;1256;70678;-68
2023/04/03 01:12:34;;;;;;;6.70;6.10;;;;;;;19.33;49.00;98736.52;104214;1257;73038;-68
2023/04/03 01:15:07;;;;;;;7.10;5.70;;;;;;;19.29;49.58;98734.09;104422;1262;62537;-68
2023/04/03 01:17:44;;;;;;;6.10;5.60;;;;;;;19.34;49.57;98733.58;104200;1259;61603;-68
2023/04/03 01:20:31;;;;;;;7.00;6.00;;;;;;;19.29;49.48;98734.91;104232;1257;73331;-68
2023/04/03 01:23:11;;;;;;;5.70;5.20;;;;;;;19.28;49.69;98738.79;104655;1254;69782;-68
2023/04/03 01:25:51;;;;;;;5.70;5.20;;;;;;;19.26;49.47;98739.18;107929;1256;74910;-67
2023/04/03 01:28:31;;;;;;;5.80;5.30;;;;;;;19.24;49.67;98739.52;104982;1257;62488;-68
2023/04/03 01:31:10;;;;;;;5.90;5.20;;;;;;;19.17;50.29;98735.35;104927;1257;61882;-68
2023/04/03 01:33:40;;;;;;;5.80;5.30;;;;;;;19.20;50.09;98737.41;104287;1258;74618;-67
2023/04/03 01:36:08;;;;;;;6.50;5.90;;;;;;;19.19;49.87;98734.12;104558;1259;70648;-67
2023/04/03 01:38:38;;;;;;;9.70;5.40;;;;;;;19.22;49.52;98737.73;104292;1254;73469;-67
2023/04/03 01:41:07;;;;;;;6.50;5.90;;;;;;;19.18;49.94;98733.98;104578;1270;63160;-65
2023/04/03 01:43:36;;;;;;;6.40;5.80;;;;;;;19.09;49.97;98732.70;104294;1256;60905;-65
2023/04/03 01:46:05;;;;;;;6.10;5.60;;;;;;;19.04;50.14;98733.13;104430;1269;74010;-65
2023/04/03 01:48:35;;;;;;;6.40;5.90;;;;;;;19.00;49.86;98730.86;104288;1264;70122;-65
2023/04/03 01:51:03;;;;;;;6.80;6.10;;;;;;;18.98;50.35;98732.19;104477;1257;74020;-65
2023/04/03 01:53:31;;;;;;;6.70;6.00;;;;;;;18.92;50.31;98733.55;104287;1255;63116;-65
2023/04/03 01:56:00;;;;;;;7.70;6.30;;;;;;;18.85;50.54;98735.80;104369;1268;60760;-65
2023/04/03 01:58:30;;;;;;;7.40;6.10;;;;;;;18.85;50.34;98731.55;104295;1269;74363;-64
2023/04/03 02:00:58;;;;;;;6.50;5.90;;;;;;;18.93;50.52;98729.89;104304;1254;70340;-65
2023/04/03 02:03:27;;;;;;;8.60;6.40;;;;;;;18.97;50.27;98728.34;104324;1258;75054;-64
2023/04/03 02:05:57;;;;;;;6.70;6.00;;;;;;;19.00;50.32;98727.36;104443;1254;61915;-60
2023/04/03 02:08:26;;;;;;;7.10;6.30;;;;;;;19.03;50.04;98730.23;105260;1260;61459;-67
2023/04/03 02:10:55;;;;;;;6.50;6.00;;;;;;;19.02;50.08;98731.23;104292;1265;73681;-67
2023/04/03 02:13:23;;;;;;;8.00;6.70;;;;;;;18.98;50.26;98734.45;104271;1259;69707;-66
2023/04/03 02:15:51;;;;;;;7.30;6.10;;;;;;;18.95;50.12;98735.98;104557;1266;72934;-66
2023/04/03 02:18:20;;;;;;;7.90;6.90;;;;;;;18.97;50.55;98735.05;104307;1269;61726;-66
2023/04/03 02:20:52;;;;;;;7.10;6.40;;;;;;;19.03;50.33;98741.46;104285;1272;60924;-66
2023/04/03 02:23:21;;;;;;;6.80;6.20;;;;;;;19.04;50.50;98739.41;104357;1256;74990;-66
2023/04/03 02:25:51;;;;;;;7.10;6.50;;;;;;;19.11;50.38;98740.21;104432;1261;72022;-66
2023/04/03 02:28:21;;;;;;;7.10;6.40;;;;;;;19.08;50.61;98740.63;104821;1255;73686;-66
2023/04/03 02:30:49;;;;;;;7.30;6.40;;;;;;;19.09;50.09;98744.77;104330;1259;62843;-66
2023/04/03 02:33:21;;;;;;;6.40;5.90;;;;;;;19.16;50.06;98741.64;104221;1261;61422;-67
2023/04/03 02:35:54;;;;;;;7.20;6.10;;;;;;;19.20;50.16;98744.13;104523;1259;74713;-67
2023/04/03 02:38:23;;;;;;;7.20;6.50;;;;;;;19.26;49.75;98745.92;104372;1260;70918;-66
2023/04/03 02:40:52;;;;;;;7.40;6.70;;;;;;;19.26;49.84;98743.55;104253;1260;73244;-66
2023/04/03 02:43:21;;;;;;;7.30;6.60;;;;;;;19.27;50.00;98744.37;104241;1273;62313;-67
2023/04/03 02:45:49;;;;;;;7.20;6.70;;;;;;;19.27;49.90;98743.84;104475;1255;61586;-66
2023/04/03 02:48:18;;;;;;;6.80;6.20;;;;;;;19.28;49.72;98744.44;104722;1269;74761;-67
2023/04/03 02:50:47;;;;;;;7.10;6.50;;;;;;;19.29;49.69;98743.16;104252;1263;70646;-67
2023/04/03 02:53:15;;;;;;;7.80;7.00;;;;;;;19.23;49.61;98743.29;104356;1260;73605;-66
2023/04/03 02:55:44;;;;;;;7.50;6.80;;;;;;;19.20;49.49;98742.14;104212;1261;62525;-67
2023/04/03 02:58:14;;;;;;;7.20;6.50;;;;;;;19.16;49.65;98745.04;104391;1265;60903;-65
2023/04/03 03:00:43;;;;;;;8.10;6.40;;;;;;;19.08;49.77;98741.73;104271;1254;74112;-66
2023/04/03 03:03:13;;;;;;;7.40;6.70;;;;;;;19.02;49.98;98739.02;104289;1258;70852;-65
2023/04/03 03:05:42;;;;;;;8.10;7.30;;;;;;;19.07;49.80;98747.77;104427;1257;74008;-66
2023/04/03 03:08:12;;;;;;;6.80;6.20;;;;;;;19.06;50.00;98750.92;104472;1259;62174;-64
2023/04/03 03:10:41;;;;;;;7.10;6.50;;;;;;;19.10;50.57;98753.98;104204;1259;61603;-64
2023/04/03 03:13:10;;;;;;;7.50;6.80;;;;;;;19.26;49.96;98754.44;104328;1266;74462;-66
2023/04/03 03:15:40;;;;;;;7.90;7.10;;;;;;;19.29;49.91;98748.48;104332;1267;70414;-65
2023/04/03 03:18:08;;;;;;;7.30;6.60;;;;;;;19.17;49.83;98749.93;104446;1270;73739;-67
2023/04/03 03:20:41;;;;;;;7.50;6.90;;;;;;;19.17;49.98;98748.34;104268;1255;61994;-68
2023/04/03 03:23:09;;;;;;;8.50;6.60;;;;;;;19.14;49.93;98747.00;104390;1267;61629;-66
2023/04/03 03:25:39;;;;;;;6.90;6.30;;;;;;;19.14;49.93;98747.40;108297;1256;75452;-67
2023/04/03 03:28:08;;;;;;;7.10;6.50;;;;;;;19.11;49.92;98744.79;106316;1259;70626;-70
2023/04/03 03:30:36;;;;;;;6.70;5.80;;;;;;;19.09;50.23;98746.41;104326;1260;75308;-67
2023/04/03 03:33:04;;;;;;;6.30;5.80;;;;;;;19.01;50.43;98745.16;104793;1254;63269;-67
2023/04/03 03:35:33;;;;;;;9.00;6.60;;;;;;;18.95;50.73;98749.98;104844;1254;62149;-66
2023/04/03 03:38:04;;;;;;;6.60;6.00;;;;;;;18.91;51.15;98751.39;104565;1259;74457;-66
2023/04/03 03:40:32;;;;;;;7.50;6.50;;;;;;;18.87;51.19;98754.25;104354;1267;70394;-61
2023/04/03 03:43:01;;;;;;;7.10;6.50;;;;;;;18.87;51.33;98751.45;104335;1267;75020;-64
2023/04/03 03:45:31;;;;;;;7.20;6.50;;;;;;;18.91;51.46;98752.50;104169;1264;62075;-63
2023/04/03 03:47:59;;;;;;;7.50;6.60;;;;;;;18.93;51.11;98748.00;104593;1260;61701;-65
2023/04/03 03:50:28;;;;;;;6.60;6.10;;;;;;;18.91;51.24;98751.30;104571;1260;76393;-64
2023/04/03 03:52:57;;;;;;;6.80;6.10;;;;;;;18.92;51.33;98753.52;104317;1259;72581;-63
2023/04/03 03:55:25;;;;;;;7.60;6.90;;;;;;;18.92;51.07;98757.02;104288;1263;73287;-63
2023/04/03 03:57:54;;;;;;;6.80;6.20;;;;;;;18.90;50.88;98757.36;104314;1255;62250;-63
2023/04/03 04:00:23;;;;;;;7.70;7.00;;;;;;;18.87;51.38;98756.77;104226;1258;61707;-63
2023/04/03 04:02:54;;;;;;;7.00;6.20;;;;;;;18.86;51.59;98761.95;104309;1260;74788;-63
2023/04/03 04:05:26;;;;;;;7.10;6.40;;;;;;;18.88;51.47;98761.25;104308;1275;69918;-63
2023/04/03 04:07:57;;;;;;;7.30;6.60;;;;;;;18.90;51.25;98765.33;104285;1260;73562;-63
2023/04/03 04:10:26;;;;;;;7.20;6.40;;;;;;;18.86;51.49;98765.36;104329;1260;63006;-64
2023/04/03 04:12:54;;;;;;;7.40;6.70;;;;;;;18.86;51.90;98767.64;104195;1276;61647;-63
2023/04/03 04:15:27;;;;;;;7.60;6.90;;;;;;;18.85;51.91;98770.41;104351;1260;74339;-63
2023/04/03 04:17:56;;;;;;;7.00;6.40;;;;;;;18.85;51.98;98770.60;104362;1260;70545;-63
2023/04/03 04:20:25;;;;;;;7.90;7.20;;;;;;;18.84;52.02;98772.07;104205;1261;72875;-63
2023/04/03 04:22:54;;;;;;;7.00;6.40;;;;;;;18.88;51.82;98771.04;104193;1257;62320;-64
2023/04/03 04:25:23;;;;;;;7.40;6.70;;;;;;;18.90;51.50;98770.68;104390;1259;61586;-64
2023/04/03 04:27:52;;;;;;;7.70;7.00;;;;;;;18.90;51.62;98771.77;104306;1265;74729;-62
2023/04/03 04:30:20;;;;;;;7.30;6.60;;;;;;;18.95;51.54;98773.06;104234;1266;70442;-63
2023/04/03 04:32:50;;;;;;;7.50;6.80;;;;;;;19.04;51.35;98770.80;104399;1256;73049;-64
2023/04/03 04:35:19;;;;;;;7.40;6.60;;;;;;;19.10;51.59;98769.41;104379;1266;61705;-64
2023/04/03 04:37:49;;;;;;;7.50;6.80;;;;;;;19.09;50.97;98775.05;104346;1257;61688;-64
2023/04/03 04:40:18;;;;;;;7.10;6.50;;;;;;;18.96;51.46;98777.56;104348;1255;75771;-64
2023/04/03 04:42:48;;;;;;;7.70;7.00;;;;;;;18.94;51.75;98775.94;104258;1257;70279;-63
2023/04/03 04:45:18;;;;;;;7.30;6.70;;;;;;;18.92;51.63;98777.97;104402;1254;73373;-64
2023/04/03 04:47:51;;;;;;;8.40;6.90;;;;;;;18.91;51.98;98779.11;104309;1250;62265;-64
2023/04/03 04:50:20;;;;;;;7.70;6.90;;;;;;;19.00;51.59;98777.02;104506;1257;61577;-64
2023/04/03 04:52:49;;;;;;;7.40;6.70;;;;;;;19.03;51.53;98774.96;104290;1269;74631;-64
2023/04/03 04:55:18;;;;;;;7.40;6.70;;;;;;;18.97;51.98;98773.99;104329;1257;70215;-64
2023/04/03 04:57:50;;;;;;;7.00;6.40;;;;;;;18.96;52.05;98774.94;104214;1257;72960;-63
2023/04/03 05:00:20;;;;;;;10.00;6.80;;;;;;;19.00;51.90;98777.76;106492;1254;62329;-60
2023/04/03 05:02:50;;;;;;;7.70;6.50;;;;;;;19.05;51.88;98775.91;108339;1254;60801;-60
2023/04/03 05:05:19;;;;;;;6.60;6.00;;;;;;;19.10;52.00;98778.98;108358;1251;74932;-63
2023/04/03 05:07:48;;;;;;;6.70;6.10;;;;;;;19.20;51.96;98782.14;108332;1251;70605;-61
2023/04/03 05:10:16;;;;;;;6.40;5.90;;;;;;;19.23;51.90;98782.08;107976;1254;73380;-63
2023/04/03 05:12:45;;;;;;;7.20;6.50;;;;;;;19.35;51.57;98786.04;104443;1256;62294;-60
2023/04/03 05:15:14;;;;;;;7.30;6.60;;;;;;;19.36;51.81;98784.45;104316;1261;61594;-61
2023/04/03 05:17:44;;;;;;;7.50;6.80;;;;;;;19.40;51.47;98781.20;104267;1255;74291;-62
2023/04/03 05:20:14;;;;;;;8.10;6.90;;;;;;;19.48;51.44;98783.33;104495;1257;69799;-63
2023/04/03 05:22:43;;;;;;;7.40;6.70;;;;;;;19.46;51.19;98784.87;104353;1267;74334;-60
2023/04/03 05:25:11;;;;;;;7.60;6.70;;;;;;;19.47;51.29;98791.54;104374;1251;63824;-60
2023/04/03 05:27:44;;;;;;;6.70;6.20;;;;;;;19.57;51.08;98791.02;104501;1254;61685;-61
2023/04/03 05:30:13;;;;;;;6.90;6.30;;;;;;;19.60;50.80;98792.29;104243;1264;74412;-62
2023/04/03 05:32:42;;;;;;;7.80;6.90;;;;;;;19.57;50.71;98795.83;104390;1258;70566;-61
2023/04/03 05:35:17;;;;;;;7.00;6.40;;;;;;;19.53;50.87;98797.38;104297;1267;73046;-61
2023/04/03 05:37:48;;;;;;;7.90;6.50;;;;;;;19.50;51.19;98799.26;104269;1267;62535;-62
2023/04/03 05:40:18;;;;;;;8.50;7.00;;;;;;;19.44;51.55;98800.70;104256;1264;61756;-61
2023/04/03 05:42:49;;;;;;;7.50;6.80;;;;;;;19.51;51.58;98801.34;104215;1251;75619;-61
2023/04/03 05:45:18;;;;;;;7.20;6.50;;;;;;;19.49;51.67;98805.44;104412;1264;69906;-62
2023/04/03 05:47:47;;;;;;;7.40;6.80;;;;;;;19.54;51.41;98804.95;104333;1251;74383;-61
2023/04/03 05:50:16;;;;;;;7.20;6.50;;;;;;;19.66;50.86;98804.73;104393;1257;62111;-62
2023/04/03 05:52:45;;;;;;;7.00;6.40;;;;;;;19.69;50.80;98809.05;104315;1270;61628;-62
2023/04/03 05:55:14;;;;;;;8.30;6.40;;;;;;;19.71;50.88;98810.34;104392;1251;75433;-63
2023/04/03 05:57:44;;;;;;;7.60;6.80;;;;;;;19.72;50.26;98809.36;104218;1274;70195;-62
2023/04/03 06:00:15;;;;;;;7.30;6.60;;;;;;;19.66;51.03;98810.80;104301;1255;73918;-61
2023/04/03 06:02:48;;;;;;;7.70;7.00;;;;;;;19.64;51.02;98812.03;104683;1257;63073;-61
2023/04/03 06:05:20;;;;;;;6.90;6.10;;;;;;;19.63;50.99;98814.39;104320;1255;61631;-62
2023/04/03 06:07:49;;;;;;;7.20;6.50;;;;;;;19.73;50.98;98817.60;104516;1254;74760;-63
2023/04/03 06:10:18;;;;;;;7.50;6.70;;;;;;;19.80;50.85;98817.48;104492;1255;70680;-62
2023/04/03 06:12:47;;;;;;;7.00;6.40;;;;;;;19.78;51.15;98819.61;104275;1251;74810;-62
2023/04/03 06:15:16;;;;;;;6.50;5.90;;;;;;;19.90;50.80;98820.29;104257;1250;61837;-61
2023/04/03 06:17:48;;;;;;;7.00;6.40;;;;;;;19.76;50.99;98823.00;104265;1264;61763;-62
2023/04/03 06:20:17;;;;;;;6.90;6.30;;;;;;;19.78;51.11;98824.61;104438;1254;74419;-61
2023/04/03 06:22:46;;;;;;;7.90;7.10;;;;;;;19.79;50.99;98824.69;104253;1254;70937;-62
2023/04/03 06:25:17;;;;;;;6.10;5.60;;;;;;;19.81;51.17;98829.95;105477;1251;74150;-62
2023/04/03 06:27:45;;;;;;;6.70;6.10;;;;;;;19.89;50.91;98831.90;108492;1251;62128;-62
2023/04/03 06:30:15;;;;;;;6.60;5.90;;;;;;;19.91;50.50;98833.02;105437;1251;61676;-60
2023/04/03 06:32:44;;;;;;;6.20;5.70;;;;;;;19.92;51.03;98837.65;105422;1254;74998;-64
2023/04/03 06:35:14;;;;;;;6.50;5.90;;;;;;;19.95;51.30;98836.33;105754;1252;70496;-64
2023/04/03 06:37:42;;;;;;;7.20;6.60;;;;;;;19.95;51.20;98837.39;104769;1254;73318;-61
2023/04/03 06:40:20;;;;;;;6.20;5.70;;;;;;;20.00;51.03;98841.91;104467;1254;62249;-63
2023/04/03 06:42:48;;;;;;;;;;;;;;;20.06;50.94;98843.00;104416;1252;61695;-61
2023/04/03 06:45:19;;;;;;;8.50;5.50;;;;;;;20.14;51.28;98844.30;104497;1255;75370;-61
2023/04/03 06:47:47;;;;;;;6.60;5.90;;;;;;;20.10;51.21;98844.90;104565;1254;72736;-61
2023/04/03 06:50:16;;;;;;;6.20;5.70;;;;;;;20.12;50.89;98845.55;104877;1251;73633;-60
2023/04/03 06:52:47;;;;;;;7.10;5.60;;;;;;;20.07;50.83;98849.07;104665;1252;63140;-60
2023/04/03 06:55:15;;;;;;;6.70;6.10;;;;;;;19.98;51.05;98852.07;104555;1252;61644;-60
2023/04/03 06:57:46;;;;;;;6.20;5.60;;;;;;;19.97;51.39;98855.50;104340;1263;74084;-61
2023/04/03 07:00:16;;;;;;;6.00;5.50;;;;;;;19.91;51.04;98854.20;104388;1252;70180;-60
2023/04/03 07:02:52;;;;;;;5.80;5.30;;;;;;;19.86;51.40;98856.38;104382;1257;73235;-61
2023/04/03 07:05:21;;;;;;;7.80;5.60;;;;;;;19.82;51.47;98854.64;106718;1251;62678;-61
2023/04/03 07:07:50;;;;;;;5.10;4.70;;;;;;;19.82;51.80;98857.61;106186;1251;61698;-61
2023/04/03 07:10:19;;;;;;;6.20;5.50;;;;;;;19.87;52.05;98857.65;104427;1264;74573;-60
2023/04/03 07:12:50;;;;;;;6.00;5.50;;;;;;;19.87;51.98;98857.88;104585;1258;72102;-60
2023/04/03 07:15:18;;;;;;;6.10;5.60;;;;;;;19.93;51.93;98858.74;104794;1253;73261;-60
2023/04/03 07:17:47;;;;;;;5.60;5.10;;;;;;;19.96;52.58;98861.55;104502;1254;62945;-60
2023/04/03 07:20:17;;;;;;;5.60;5.10;;;;;;;20.00;52.02;98863.58;104283;1257;61695;-59
2023/04/03 07:22:47;;;;;;;5.40;4.90;;;;;;;20.04;52.05;98866.77;104297;1258;75743;-61
2023/04/03 07:25:16;;;;;;;5.60;5.00;;;;;;;20.10;51.31;98868.04;104287;1255;69905;-60
2023/04/03 07:27:44;;;;;;;5.40;5.00;;;;;;;20.14;51.04;98867.67;104341;1256;74382;-62
2023/04/03 07:30:14;;;;;;;4.80;4.40;;;;;;;20.11;51.71;98870.27;104219;1265;62830;-60
2023/04/03 07:32:43;;;;;;;5.40;5.00;;;;;;;20.10;51.32;98871.02;104825;1251;62915;-62
2023/04/03 07:35:12;;;;;;;5.00;4.60;;;;;;;20.09;51.21;98871.30;104853;1257;74823;-60
2023/04/03 07:37:41;;;;;;;5.10;4.60;;;;;;;20.13;51.78;98869.35;105187;1254;71084;-61
2023/04/03 07:40:10;;;;;;;5.60;5.10;;;;;;;20.09;51.50;98871.80;104213;1274;73773;-61
2023/04/03 07:42:40;;;;;;;5.10;4.70;;;;;;;20.04;51.59;98870.40;104659;1250;62364;-62
2023/04/03 07:45:09;;;;;;;5.80;5.10;;;;;;;20.05;51.93;98871.91;104656;1252;61609;-61
2023/04/03 07:47:39;;;;;;;6.20;5.60;;;;;;;20.13;51.18;98873.63;105001;1250;75378;-62
2023/04/03 07:50:08;;;;;;;5.90;5.40;;;;;;;20.09;51.21;98871.48;104675;1259;70300;-62
2023/04/03 07:52:38;;;;;;;5.30;4.80;;;;;;;20.16;51.53;98874.93;104719;1254;73118;-64
2023/04/03 07:55:08;;;;;;;5.50;5.00;;;;;;;20.29;51.78;98876.35;104979;1254;63499;-60
2023/04/03 07:57:37;;;;;;;6.40;5.30;;;;;;;20.35;51.35;98878.83;104535;1254;60603;-61
2023/04/03 08:00:06;;;;;;;5.50;5.00;;;;;;;20.38;51.52;98881.01;104895;1251;75118;-61
2023/04/03 08:02:42;;;;;;;5.20;4.80;;;;;;;20.49;51.29;98878.88;104897;1254;70938;-61
2023/04/03 08:05:11;;;;;;;4.40;4.00;;;;;;;20.56;51.20;98880.34;104681;1257;74507;-61
2023/04/03 08:07:40;;;;;;;5.20;4.80;;;;;;;20.63;51.46;98878.86;104559;1257;62836;-60
2023/04/03 08:10:09;;;;;;;5.30;4.90;;;;;;;20.66;51.06;98879.77;105326;1250;62124;-62
2023/04/03 08:12:37;;;;;;;5.60;4.70;;;;;;;20.55;50.65;98882.72;104551;1253;75470;-62
2023/04/03 08:15:08;;;;;;;6.20;4.90;;;;;;;20.41;51.23;98884.52;104288;1261;70888;-62
2023/04/03 08:17:37;;;;;;;5.60;5.10;;;;;;;20.41;51.42;98886.27;104348;1255;74574;-62
2023/04/03 08:20:07;;;;;;;6.00;4.80;;;;;;;20.38;51.73;98889.21;104302;1260;63276;-64
2023/04/03 08:22:35;;;;;;;5.10;4.60;;;;;;;20.39;51.40;98889.46;104354;1270;61615;-62
2023/04/03 08:25:04;;;;;;;4.70;4.30;;;;;;;20.45;51.36;98890.50;104276;1256;75454;-62
2023/04/03 08:27:32;;;;;;;5.10;4.70;;;;;;;20.47;51.16;98894.42;108487;1252;70976;-62
2023/04/03 08:30:01;;;;;;;4.90;4.40;;;;;;;20.47;51.33;98896.37;107763;1253;73694;-61
2023/04/03 08:32:34;;;;;;;4.50;4.10;;;;;;;20.43;51.35;98894.35;104276;1257;62194;-62
2023/04/03 08:35:04;;;;;;;5.10;4.20;;;;;;;20.48;52.14;98897.63;104711;1270;61623;-62
2023/04/03 08:37:36;;;;;;;4.60;4.20;;;;;;;20.56;52.17;98899.56;104757;1253;74719;-62
2023/04/03 08:40:06;;;;;;;5.00;4.10;;;;;;;20.68;52.15;98898.50;104335;1257;70534;-61
2023/04/03 08:42:45;;;;;;;4.30;3.90;;;;;;;20.69;50.96;98900.52;104222;1257;73873;-61
2023/04/03 08:45:22;;;;;;;4.70;4.30;;;;;;;20.57;51.98;98906.95;104413;1254;61965;-62
2023/04/03 08:47:50;;;;;;;5.00;4.50;;;;;;;20.55;51.67;98905.06;104712;1251;61592;-63
2023/04/03 08:50:29;;;;;;;4.90;4.40;;;;;;;20.54;51.22;98904.18;104861;1253;76037;-62
2023/04/03 08:52:58;;;;;;;5.20;3.90;;;;;;;20.53;52.12;98905.77;104499;1258;71196;-63
2023/04/03 08:55:47;;;;;;;4.90;4.40;;;;;;;20.57;52.15;98904.52;104587;1253;73165;-65
2023/04/03 08:58:27;;;;;;;4.80;4.40;;;;;;;20.67;52.48;98906.93;104900;1253;62315;-62
2023/04/03 09:01:00;;;;;;;4.50;4.10;;;;;;;20.81;52.86;98909.91;104554;1260;61596;-62
2023/04/03 09:03:32;;;;;;;5.00;4.60;;;;;;;20.93;52.13;98907.95;104836;1257;74451;-62
2023/04/03 09:06:06;;;;;;;5.10;4.40;;;;;;;20.97;51.29;98909.58;105546;1253;69823;-63
2023/04/03 09:08:40;;;;;;;4.50;4.10;;;;;;;21.03;51.38;98912.69;108373;1253;74984;-64
2023/04/03 09:11:28;;;;;;;6.00;4.70;;;;;;;21.06;51.02;98911.15;107011;1254;63580;-62
2023/04/03 09:14:08;;;;;;;4.30;3.90;;;;;;;21.10;50.76;98913.84;104674;1254;61678;-62
2023/04/03 09:16:57;;;;;;;4.80;4.30;;;;;;;21.10;50.41;98913.21;104278;1263;75463;-62
2023/04/03 09:19:25;;;;;;;;;;;;;;;21.11;50.70;98911.02;104507;1253;70117;-62
2023/04/03 09:21:59;;;;;;;3.90;3.60;;;;;;;21.12;50.25;98913.90;104451;1268;73104;-62
2023/04/03 09:24:28;;;;;;;4.80;4.40;;;;;;;21.06;50.39;98918.48;104277;1258;62272;-62
2023/04/03 09:27:05;;;;;;;4.70;4.20;;;;;;;20.99;49.80;98921.64;104289;1256;62489;-61
2023/04/03 09:29:36;;;;;;;4.20;3.80;;;;;;;20.98;49.88;98925.33;104428;1256;74588;-61
2023/04/03 09:32:32;;;;;;;4.80;4.10;;;;;;;20.98;50.70;98923.90;104766;1256;69872;-62
2023/04/03 09:35:03;;;;;;;4.30;3.90;;;;;;;21.06;50.30;98929.02;104429;1254;72964;-62
2023/04/03 09:37:49;;;;;;;4.50;4.10;;;;;;;21.18;50.70;98930.70;104594;1257;62946;-63
2023/04/03 09:40:27;;;;;;;4.10;3.80;;;;;;;21.26;50.26;98930.11;105310;1257;61679;-62
2023/04/03 09:43:00;;;;;;;4.30;3.90;;;;;;;21.33;49.47;98930.39;104547;1260;75654;-62
2023/04/03 09:45:31;;;;;;;4.10;3.80;;;;;;;21.36;49.52;98932.67;104272;1256;72015;-61
2023/04/03 09:48:12;;;;;;;4.60;4.10;;;;;;;21.38;49.71;98926.20;104624;1253;73961;-62
2023/04/03 09:50:55;;;;;;;4.30;3.80;;;;;;;21.34;49.01;98931.45;104540;1253;63892;-61
2023/04/03 09:53:31;;;;;;;5.20;4.70;;;;;;;21.29;48.98;98931.67;104562;1266;61797;-61
2023/04/03 09:56:03;;;;;;;4.40;4.00;;;;;;;21.26;49.02;98930.91;104457;1258;75190;-62
2023/04/03 09:58:40;;;;;;;3.80;3.50;;;;;;;21.27;48.57;98933.14;104488;1257;72852;-62
2023/04/03 10:01:39;;;;;;;4.70;3.80;;;;;;;21.31;49.26;98931.70;104289;1254;74369;-61
2023/04/03 10:04:13;;;;;;;4.30;3.80;;;;;;;21.39;49.07;98936.83;104265;1254;62939;-61
2023/04/03 10:06:46;;;;;;;4.40;4.00;;;;;;;21.42;48.60;98939.77;104467;1257;61460;-65
2023/04/03 10:09:23;;;;;;;4.40;4.10;;;;;;;21.40;48.09;98940.60;104532;1251;74429;-61
2023/04/03 10:12:10;;;;;;;4.40;4.10;;;;;;;21.43;48.58;98940.34;104409;1261;70325;-61
2023/04/03 10:14:40;;;;;;;4.60;4.20;;;;;;;21.49;48.47;98946.51;104491;1254;73095;-62
2023/04/03 10:17:09;;;;;;;4.70;4.30;;;;;;;21.53;47.84;98943.50;104477;1268;62417;-63
2023/04/03 10:19:43;;;;;;;6.30;4.20;;;;;;;21.47;46.86;98949.26;104586;1253;61596;-61
2023/04/03 10:22:21;;;;;;;5.00;3.90;;;;;;;21.48;47.31;98952.17;104676;1256;74602;-62
2023/04/03 10:25:32;;;;;;;4.30;4.00;;;;;;;21.51;47.78;98953.52;104612;1267;70491;-61
2023/04/03 10:28:01;;;;;;;4.10;3.80;;;;;;;21.63;47.31;98953.19;104703;1252;74605;-62
2023/04/03 10:30:29;;;;;;;4.00;3.70;;;;;;;21.71;47.37;98955.25;104920;1254;61881;-61
2023/04/03 10:33:22;;;;;;;3.90;3.60;;;;;;;21.83;47.09;98957.75;104672;1252;61564;-62
2023/04/03 10:36:29;;;;;;;3.90;3.50;;;;;;;21.89;45.30;98961.08;104602;1254;75065;-64
2023/04/03 10:39:01;;;;;;;4.20;3.90;;;;;;;21.90;46.08;98964.41;104876;1256;69944;-61
2023/04/03 10:41:38;;;;;;;4.10;3.80;;;;;;;21.76;46.68;98962.07;104676;1253;73858;-62
2023/04/03 10:44:57;;;;;;;4.10;3.70;;;;;;;21.72;46.47;98964.76;104402;1266;62066;-59
2023/04/03 10:47:51;;;;;;;5.00;3.80;;;;;;;21.72;46.44;98967.96;104512;1251;62278;-61
2023/04/03 10:50:35;;;;;;;4.40;4.00;;;;;;;21.74;46.90;98972.92;105399;1252;76161;-59
2023/04/03 10:53:08;;;;;;;4.60;4.20;;;;;;;21.74;46.96;98974.91;104728;1254;70291;-60
2023/04/03 10:55:42;;;;;;;4.30;3.90;;;;;;;21.70;46.36;98973.84;104682;1255;72979;-60
2023/04/03 10:58:32;;;;;;;4.30;3.90;;;;;;;21.71;46.66;98972.54;104421;1269;62138;-61
2023/04/03 11:01:23;;;;;;;3.90;3.60;;;;;;;21.79;47.28;98972.64;104516;1255;61718;-60
2023/04/03 11:03:57;;;;;;;6.30;3.40;;;;;;;21.86;46.95;98974.40;104298;1255;74635;-60
2023/04/03 11:06:28;;;;;;;3.50;3.20;;;;;;;21.87;45.50;98974.88;104491;1254;298013;-60
2023/04/03 11:09:58;;;;;;;4.20;3.90;;;;;;;20.69;52.72;98975.86;101812;1292;602425;-61
2023/04/03 11:12:33;;;;;;;4.50;3.60;;;;;;;22.00;46.46;98973.04;104142;1266;63172;-61
2023/04/03 11:15:05;;;;;;;3.60;3.30;;;;;;;21.94;46.34;98975.15;104076;1269;61829;-61
2023/04/03 11:17:37;;;;;;;3.40;3.10;;;;;;;21.93;46.00;98976.17;104075;1267;72632;-61
2023/04/03 11:20:27;;;;;;;3.90;3.60;;;;;;;21.94;46.04;98975.34;103992;1267;72089;-62
2023/04/03 11:23:04;;;;;;;4.50;3.40;;;;;;;21.88;45.95;98978.27;103593;1263;256159;-62
2023/04/03 11:25:34;;;;;;;4.40;3.90;;;;;;;21.86;46.48;98979.27;104858;1256;62240;-61
2023/04/03 11:28:05;;;;;;;4.00;3.70;;;;;;;21.75;46.46;98983.50;104677;1257;61351;-61
2023/04/03 11:30:38;;;;;;;3.40;3.20;;;;;;;21.70;45.95;98986.02;104996;1253;73862;-61
2023/04/03 11:33:32;;;;;;;4.50;4.10;;;;;;;21.64;46.09;98986.73;104697;1254;72045;-60
2023/04/03 11:36:23;;;;;;;4.70;4.00;;;;;;;21.58;46.32;98985.55;104721;1267;73723;-60
2023/04/03 11:38:59;;;;;;;3.50;3.20;;;;;;;21.44;46.06;98987.63;104756;1251;62929;-62
2023/04/03 11:41:46;;;;;;;4.60;4.20;;;;;;;21.34;46.48;98989.17;104671;1254;60769;-60
2023/04/03 11:44:46;;;;;;;4.00;3.70;;;;;;;21.40;46.29;98990.33;104744;1253;74156;-61
2023/04/03 11:47:44;;;;;;;3.80;3.50;;;;;;;21.44;46.63;98994.90;105042;1259;70188;-62
2023/04/03 11:50:33;;;;;;;3.90;3.50;;;;;;;21.47;46.75;98995.76;104749;1254;73596;-62
2023/04/03 11:53:06;;;;;;;4.10;3.50;;;;;;;21.47;46.49;98996.27;104907;1251;62824;-62